Time;durP1;ratioP1;P1;durP2;ratioP2;P2;SDS_P1;SDS_P2;PMS_P1;PMS_P2;Temp;Humidity;BMP_temperature;BMP_pressure;BME280_temperature;BME280_humidity;BME280_pressure;Samples;Min_cycle;Max_cycle;Signal;HPM_P1;HPM_P2
2023/03/28 00:01:12;;;;;;;;;6.00;6.00;;;;;2.46;55.77;99062.56;6329433;20;1808627;-54
2023/03/28 00:03:41;;;;;;;;;3.67;3.00;;;;;2.47;55.77;99059.81;6315415;20;3451419;-51
2023/03/28 00:06:17;;;;;;;;;6.25;6.25;;;;;2.40;55.43;99063.66;6329821;20;1818072;-52
2023/03/28 00:08:46;;;;;;;;;7.00;5.50;;;;;2.34;55.68;99059.47;6331164;20;1825384;-51
2023/03/28 00:11:19;;;;;;;;;7.50;6.00;;;;;2.44;55.53;99067.91;6328089;20;1819043;-54
2023/03/28 00:13:59;;;;;;;;;9.00;6.67;;;;;2.43;55.98;99063.53;6308748;20;3463825;-52
2023/03/28 00:16:34;;;;;;;;;6.00;5.67;;;;;2.37;55.71;99063.75;6312185;20;3461739;-54
2023/03/28 00:19:11;;;;;;;;;5.00;5.00;;;;;2.39;54.87;99067.22;6331141;20;1825413;-54
2023/03/28 00:21:48;;;;;;;;;5.00;5.00;;;;;2.42;56.13;99067.09;6327581;20;1825300;-53
2023/03/28 00:24:20;;;;;;;;;3.00;3.00;;;;;2.39;55.34;99070.72;6329200;20;1822195;-53
2023/03/28 00:26:53;;;;;;;;;6.75;5.00;;;;;2.45;55.33;99079.34;6329232;20;1823234;-52
2023/03/28 00:29:24;;;;;;;;;8.25;5.25;;;;;2.34;55.41;99070.06;6330787;20;1812867;-52
2023/03/28 00:31:52;;;;;;;;;6.50;5.00;;;;;2.36;55.43;99089.38;6308018;20;2750295;-56
2023/03/28 00:34:21;;;;;;;;;3.00;3.00;;;;;2.36;54.21;99088.53;6309995;20;3461850;-53
2023/03/28 00:36:52;;;;;;;;;4.50;2.00;;;;;2.28;55.31;99091.44;6328012;20;1825107;-52
2023/03/28 00:39:20;;;;;;;;;5.00;3.00;;;;;2.33;54.85;99094.78;6311844;20;3438940;-51
2023/03/28 00:41:49;;;;;;;;;5.00;3.50;;;;;2.29;54.41;99095.84;6327012;20;1823264;-54
2023/03/28 00:44:55;;;;;;;;;3.00;3.00;;;;;2.29;54.44;99103.78;6311118;20;3454475;-50
2023/03/28 00:47:51;;;;;;;;;6.00;4.33;;;;;2.19;55.25;99102.41;6309115;20;3464029;-54
2023/03/28 00:50:45;;;;;;;;;9.67;5.67;;;;;2.25;54.39;99106.59;6309234;20;3466010;-54
2023/03/28 00:53:19;;;;;;;;;4.33;4.33;;;;;2.19;55.57;99113.00;6306603;20;3455470;-53
2023/03/28 00:56:00;;;;;;;;;5.67;5.00;;;;;2.22;55.10;99110.22;6310379;20;3468104;-48
2023/03/28 00:58:34;;;;;;;;;3.25;2.00;;;;;2.12;54.84;99117.63;6296507;20;1825393;-55
2023/03/28 01:01:02;;;;;;;;;5.25;5.25;;;;;2.04;55.79;99111.75;6326496;20;1820716;-52
2023/03/28 01:03:36;;;;;;;;;3.00;3.00;;;;;2.06;55.06;99117.88;6331657;20;1813957;-50
2023/03/28 01:06:07;;;;;;;;;3.00;3.00;;;;;2.08;55.05;99120.44;6328727;20;1820091;-53
2023/03/28 01:08:40;;;;;;;;;6.00;6.00;;;;;2.16;55.52;99123.72;6310229;20;3470085;-54
2023/03/28 01:11:11;;;;;;;;;6.25;5.75;;;;;2.11;55.57;99130.94;6325400;20;1821234;-56
2023/03/28 01:13:50;;;;;;;;;5.25;5.00;;;;;2.18;54.51;99129.78;6326715;20;1824272;-54
2023/03/28 01:16:22;;;;;;;;;5.75;2.75;;;;;2.10;55.15;99130.06;6327907;20;1825438;-53
2023/03/28 01:18:50;;;;;;;;;6.00;3.00;;;;;2.07;55.49;99139.91;6309835;20;3454451;-55
2023/03/28 01:22:23;;;;;;;;;1.00;1.00;;;;;2.05;56.22;99141.75;6310029;20;2721802;-54
2023/03/28 01:25:52;;;;;;;;;5.00;3.00;;;;;2.04;56.44;99130.28;6311029;20;2724341;-51
2023/03/28 01:29:25;;;;;;;;;6.00;3.25;;;;;2.07;56.01;99143.41;6326775;20;1825281;-56
2023/03/28 01:32:48;;;;;;;;;2.33;1.00;;;;;2.01;55.87;99151.59;6328593;20;1823269;-55
2023/03/28 01:35:35;;;;;;;;;9.50;6.00;;;;;1.92;57.16;99157.19;6280947;20;3434641;-54
2023/03/28 01:38:37;;;;;;;;;8.33;5.00;;;;;1.89;57.03;99162.59;6310832;20;3472170;-56
2023/03/28 01:41:17;;;;;;;;;5.00;5.00;;;;;1.89;57.96;99168.75;6276679;20;2746175;-53
2023/03/28 01:44:21;;;;;;;;;3.00;3.00;;;;;1.76;59.25;99167.44;6308969;20;3464872;-52
2023/03/28 01:47:39;;;;;;;;;5.00;5.00;;;;;1.81;59.54;99170.81;6307829;20;3465984;-53
2023/03/28 01:50:45;;;;;;;;;5.00;5.00;;;;;1.77;61.27;99160.41;6329943;20;1811844;-54
2023/03/28 01:53:42;;;;;;;;;6.00;5.00;;;;;1.60;60.59;99177.69;6313875;20;3467219;-52
2023/03/28 01:56:43;;;;;;;;;5.00;5.00;;;;;1.54;61.78;99175.25;6297984;20;1820192;-55
2023/03/28 01:59:53;;;;;;;;;5.33;5.33;;;;;1.57;62.05;99166.34;6313546;20;3470645;-53
2023/03/28 02:02:32;;;;;;;;;8.50;3.50;;;;;1.53;62.10;99171.75;6330015;20;1824863;-54
2023/03/28 02:05:08;;;;;;;;;3.33;3.33;;;;;1.37;62.45;99175.81;6315740;20;3454500;-53
2023/03/28 02:07:40;;;;;;;;;6.33;5.00;;;;;1.41;62.88;99179.22;6312703;20;3463783;-55
2023/03/28 02:10:11;;;;;;;;;5.50;5.00;;;;;1.41;62.88;99179.22;6329426;20;1818946;-54
2023/03/28 02:12:56;;;;;;;;;3.00;3.00;;;;;1.41;62.88;99179.22;6309324;20;3457665;-55
2023/03/28 02:15:28;;;;;;;;;5.00;5.00;;;;;1.41;62.88;99179.22;6326880;20;1811847;-57
2023/03/28 02:18:05;;;;;;;;;5.67;4.00;;;;;-146.39;62.88;76462.16;6309411;20;3464824;-57
2023/03/28 02:20:38;;;;;;;;;5.00;2.00;;;;;1.41;62.88;99179.22;6310116;20;3446308;-57
2023/03/28 02:23:26;;;;;;;;;5.50;4.00;;;;;1.41;62.88;99179.22;6312099;20;2754482;-57
2023/03/28 02:25:53;;;;;;;;;7.00;7.00;;;;;-146.39;100.00;62182.44;6315266;20;2747156;-56
2023/03/28 02:28:23;;;;;;;;;5.00;5.00;;;;;-146.39;100.00;62182.44;6315375;20;3463883;-57
2023/03/28 02:30:52;;;;;;;;;6.67;2.67;;;;;-146.39;100.00;62182.44;6277328;20;3461887;-55
2023/03/28 02:33:47;;;;;;;;;8.50;6.00;;;;;-146.39;100.00;62182.44;6299142;20;1825172;-55
2023/03/28 02:36:59;;;;;;;;;8.50;5.75;;;;;-146.39;100.00;62182.44;6332973;20;1820130;-58
2023/03/28 02:40:07;;;;;;;;;5.00;5.00;;;;;-146.39;100.00;62182.44;6317055;20;3450267;-56
2023/03/28 02:44:09;;;;;;;;;5.40;5.40;;;;;-146.39;100.00;62182.44;6354195;20;2635721;-55
2023/03/28 02:48:19;;;;;;;;;7.25;6.50;;;;;-146.39;100.00;62182.44;6304185;20;1825402;-57
2023/03/28 02:52:39;;;;;;;;;8.50;7.75;;;;;-146.39;100.00;62182.44;6333128;20;1818162;-54
2023/03/28 02:56:36;;;;;;;;;8.67;3.67;;;;;-146.39;100.00;62182.44;6313509;20;3455874;-58
2023/03/28 03:00:11;;;;;;;;;28.00;20.50;;;;;-146.39;100.00;62182.44;6313420;20;2825776;-55
2023/03/28 03:03:43;;;;;;;;;9.75;8.75;;;;;-146.39;100.00;62182.44;6301220;20;1813843;-58
2023/03/28 03:07:09;;;;;;;;;6.00;6.00;;;;;-146.39;100.00;62182.44;6312701;20;3442092;-57
2023/03/28 03:10:36;;;;;;;;;5.75;5.75;;;;;-146.39;100.00;62182.44;6332160;20;1818058;-58
2023/03/28 03:14:03;;;;;;;;;6.00;4.00;;;;;-146.39;100.00;62182.44;6311699;20;3458593;-56
2023/03/28 03:17:30;;;;;;;;;6.00;6.00;;;;;-146.39;100.00;62182.44;6332420;20;1818014;-58
2023/03/28 03:21:00;;;;;;;;;8.00;5.00;;;;;-146.39;100.00;62182.44;6313268;20;3471267;-55
2023/03/28 03:24:27;;;;;;;;;10.00;6.50;;;;;-146.39;100.00;62182.44;6299102;20;1825404;-55
2023/03/28 03:27:54;;;;;;;;;5.67;5.67;;;;;-146.39;100.00;62182.44;6312774;20;3450263;-58
2023/03/28 03:31:22;;;;;;;;;7.50;6.50;;;;;-146.39;100.00;62182.44;6326266;20;1815445;-59
2023/03/28 03:34:48;;;;;;;;;5.67;4.67;;;;;-146.39;100.00;62182.44;6313584;20;3461794;-58
2023/03/28 03:38:16;;;;;;;;;11.50;8.00;;;;;-146.39;100.00;62182.44;6331676;20;1823266;-58
2023/03/28 03:41:42;;;;;;;;;10.50;8.50;;;;;-146.39;100.00;62182.44;6307963;20;2761774;-58
2023/03/28 03:45:10;;;;;;;;;8.25;6.50;;;;;-146.39;100.00;62182.44;6297898;20;1811870;-58
2023/03/28 03:48:37;;;;;;;;;10.75;9.50;;;;;-146.39;100.00;62182.44;6330155;20;1818967;-56
2023/03/28 03:52:14;;;;;;;;;8.33;6.00;;;;;-146.39;100.00;62182.44;6309448;20;3456557;-57
2023/03/28 03:55:41;;;;;;;;;10.00;8.33;;;;;-146.39;100.00;62182.44;6310336;20;3472375;-59
2023/03/28 03:59:07;;;;;;;;;9.50;8.00;;;;;-146.39;100.00;62182.44;6274822;20;2480591;-55
2023/03/28 04:02:33;;;;;;;;;9.00;6.67;;;;;-146.39;100.00;62182.44;6309295;20;3469036;-55
2023/03/28 04:06:03;;;;;;;;;11.25;9.25;;;;;-146.39;100.00;62182.44;6299123;20;1827880;-58
2023/03/28 04:09:31;;;;;;;;;9.00;9.00;;;;;-146.39;100.00;62182.44;6333534;20;1819063;-55
2023/03/28 04:12:58;;;;;;;;;11.50;10.00;;;;;-146.39;100.00;62182.44;6328405;20;1821135;-48
2023/03/28 04:16:26;;;;;;;;;9.00;8.00;;;;;-146.39;100.00;62182.44;6329073;20;1816958;-48
2023/03/28 04:20:12;;;;;;;;;8.00;8.00;;;;;-146.39;100.00;62182.44;6311994;20;2738813;-46
2023/03/28 04:23:42;;;;;;;;;12.00;10.00;;;;;-146.39;100.00;62182.44;6310931;20;2780636;-47
2023/03/28 04:27:10;;;;;;;;;12.25;12.25;;;;;-146.39;100.00;62182.44;6297219;20;1816962;-46
2023/03/28 04:30:37;;;;;;;;;16.00;13.00;;;;;-146.39;100.00;62182.44;6310365;20;2808645;-46
2023/03/28 04:34:05;;;;;;;;;5.67;4.67;;;;;-146.39;100.00;62182.44;6277092;20;2742139;-52
2023/03/28 04:37:31;;;;;;;;;12.50;12.00;;;;;-146.39;100.00;62182.44;6310257;20;2807593;-50
2023/03/28 04:40:58;;;;;;;;;10.50;10.50;;;;;-146.39;100.00;62182.44;6281761;20;2804475;-51
2023/03/28 04:44:25;;;;;;;;;14.00;12.50;;;;;-146.39;100.00;62182.44;6277380;20;2794034;-48
2023/03/28 04:47:52;;;;;;;;;9.50;8.00;;;;;-146.39;100.00;62182.44;6279688;20;2743021;-48
2023/03/28 04:51:20;;;;;;;;;13.00;10.50;;;;;-146.39;100.00;62182.44;6326325;20;1820134;-44
2023/03/28 04:54:46;;;;;;;;;14.00;10.50;;;;;-146.39;100.00;62182.44;6305446;20;2789923;-47
2023/03/28 04:58:13;;;;;;;;;17.00;13.50;;;;;-146.39;100.00;62182.44;6277621;20;2798196;-44
2023/03/28 05:01:40;;;;;;;;;17.50;12.00;;;;;-146.39;100.00;62182.44;6276448;20;2796150;-45
2023/03/28 05:05:09;;;;;;;;;11.67;10.67;;;;;-146.39;100.00;62182.44;6322828;20;1816668;-46
2023/03/28 05:08:37;;;;;;;;;13.00;13.00;;;;;-146.39;100.00;62182.44;6282515;20;2788826;-48
2023/03/28 05:12:06;;;;;;;;;13.00;12.20;;;;;-146.39;100.00;62182.44;6304531;20;2810658;-48
2023/03/28 05:15:32;;;;;;;;;13.50;12.00;;;;;-146.39;100.00;62182.44;6279649;20;2796136;-47
2023/03/28 05:19:00;;;;;;;;;15.00;12.50;;;;;-146.39;100.00;62182.44;6279575;20;2813850;-47
2023/03/28 05:22:28;;;;;;;;;16.80;14.00;;;;;-146.39;100.00;62182.44;6302532;20;2816950;-47
2023/03/28 05:25:57;;;;;;;;;15.00;14.00;;;;;-146.39;100.00;62182.44;6303066;20;2811254;-48
2023/03/28 05:29:25;;;;;;;;;20.80;15.40;;;;;-146.39;100.00;62182.44;6306234;20;2825363;-46
2023/03/28 05:32:52;;;;;;;;;15.00;12.00;;;;;-146.39;100.00;62182.44;6281997;20;2810714;-47
2023/03/28 05:36:19;;;;;;;;;11.33;10.33;;;;;-146.39;100.00;62182.44;6284086;20;3507702;-45
2023/03/28 05:39:46;;;;;;;;;18.67;15.33;;;;;-146.39;100.00;62182.44;6285090;20;3547150;-45
2023/03/28 05:43:13;;;;;;;;;18.00;16.67;;;;;-146.39;100.00;62182.44;6312662;20;3557570;-47
2023/03/28 05:46:40;;;;;;;;;17.00;17.00;;;;;-146.39;100.00;62182.44;6313313;20;3560754;-44
2023/03/28 05:50:09;;;;;;;;;18.00;17.67;;;;;-146.39;100.00;62182.44;6314065;20;3556501;-46
2023/03/28 05:53:37;;;;;;;;;16.67;12.67;;;;;-146.39;100.00;62182.44;6313958;20;3554430;-46
2023/03/28 05:57:04;;;;;;;;;20.00;17.50;;;;;-146.39;100.00;62182.44;6315442;20;2826356;-45
2023/03/28 06:00:31;;;;;;;;;13.00;11.50;;;;;-146.39;100.00;62182.44;6281526;20;2802397;-47
2023/03/28 06:03:59;;;;;;;;;24.33;17.67;;;;;-146.39;100.00;62182.44;6283422;20;3581634;-47
2023/03/28 06:07:27;;;;;;;;;15.00;13.67;;;;;-146.39;100.00;62182.44;6283320;20;3541903;-45
2023/03/28 06:11:09;;;;;;;;;16.00;12.50;;;;;-146.39;100.00;62182.44;6316037;20;2796183;-46
2023/03/28 06:14:38;;;;;;;;;11.17;9.33;;;;;-146.39;100.00;62182.44;6323367;20;1829523;-44
2023/03/28 06:18:06;;;;;;;;;18.00;15.20;;;;;-146.39;100.00;62182.44;6306548;20;2823300;-46
2023/03/28 06:21:33;;;;;;;;;18.00;14.33;;;;;-146.39;100.00;62182.44;6281869;20;3558604;-57
2023/03/28 06:25:05;;;;;;;;;11.29;10.00;;;;;-146.39;100.00;62182.44;6356671;20;1819117;-50
2023/03/28 06:28:32;;;;;;;;;16.50;11.00;;;;;-146.39;100.00;62182.44;6318783;20;2820139;-49
2023/03/28 06:31:59;;;;;;;;;5.00;5.00;;;;;-146.39;100.00;62182.44;6303237;20;1814863;-51
2023/03/28 06:35:27;;;;;;;;;13.80;13.60;;;;;-146.39;100.00;62182.44;6337788;20;2792374;-58
2023/03/28 06:38:53;;;;;;;;;11.00;8.00;;;;;-146.39;100.00;62182.44;6285336;20;2757627;-46
2023/03/28 06:42:20;;;;;;;;;10.50;10.50;;;;;-146.39;100.00;62182.44;6281400;20;2778412;-48
2023/03/28 06:45:48;;;;;;;;;16.00;13.60;;;;;-146.39;100.00;62182.44;6308084;20;2801327;-47
2023/03/28 06:49:15;;;;;;;;;11.00;11.00;;;;;-146.39;100.00;62182.44;6283560;20;3546063;-46
2023/03/28 06:52:43;;;;;;;;;17.33;13.67;;;;;-146.39;100.00;62182.44;6313061;20;3534642;-48
2023/03/28 06:56:10;;;;;;;;;9.00;8.00;;;;;-146.39;100.00;62182.44;6317445;20;2752491;-48
2023/03/28 06:59:37;;;;;;;;;10.00;8.00;;;;;-146.39;100.00;62182.44;6283300;20;2764285;-51
2023/03/28 07:03:03;;;;;;;;;7.00;7.00;;;;;-146.39;100.00;62182.44;6287484;20;2748234;-50
2023/03/28 07:06:29;;;;;;;;;16.50;16.50;;;;;-146.39;100.00;62182.44;6280524;20;2819052;-47
2023/03/28 07:09:56;;;;;;;;;9.00;9.00;;;;;-146.39;100.00;62182.44;6284729;20;2755494;-49
2023/03/28 07:13:22;;;;;;;;;7.00;6.00;;;;;-146.39;100.00;62182.44;6285057;20;2739928;-46
2023/03/28 07:17:02;;;;;;;;;14.50;8.00;;;;;-146.39;100.00;62182.44;6285554;20;2771216;-45
2023/03/28 07:20:28;;;;;;;;;6.50;6.50;;;;;-146.39;100.00;62182.44;6290253;20;2740921;-48
2023/03/28 07:23:55;;;;;;;;;5.50;5.50;;;;;-146.39;100.00;62182.44;6318327;20;2739869;-46
2023/03/28 07:27:23;;;;;;;;;12.60;10.20;;;;;-146.39;100.00;62182.44;6306780;20;2774258;-44
2023/03/28 07:30:52;;;;;;;;;7.67;5.00;;;;;-146.39;100.00;62182.44;6285719;20;3465964;-46
2023/03/28 07:34:21;;;;;;;;;9.60;8.20;;;;;-146.39;100.00;62182.44;6328112;20;2770100;-47
2023/03/28 07:37:48;;;;;;;;;14.25;9.50;;;;;-146.39;100.00;62182.44;6301700;20;1825447;-46
2023/03/28 07:41:17;;;;;;;;;8.50;5.17;;;;;-146.39;100.00;62182.44;6358001;20;1796138;-47
2023/03/28 07:44:44;;;;;;;;;7.75;6.50;;;;;-146.39;100.00;62182.44;6301444;20;1816070;-46
2023/03/28 07:48:14;;;;;;;;;10.33;10.33;;;;;-146.39;100.00;62182.44;6354819;20;1813621;-46
2023/03/28 07:51:41;;;;;;;;;11.00;8.50;;;;;-146.39;100.00;62182.44;6303266;20;1811626;-45
2023/03/28 07:55:12;;;;;;;;;6.17;6.17;;;;;-146.39;100.00;62182.44;6355871;20;1808716;-46
2023/03/28 07:58:42;;;;;;;;;10.40;7.60;;;;;-146.39;100.00;62182.44;6311554;20;2754458;-48
2023/03/28 08:02:14;;;;;;;;;10.50;8.50;;;;;-146.39;100.00;62182.44;6313118;20;2764917;-46
2023/03/28 08:05:42;;;;;;;;;5.50;5.00;;;;;-146.39;100.00;62182.44;6283203;20;2748304;-45
2023/03/28 08:09:12;;;;;;;;;7.50;6.00;;;;;-146.39;100.00;62182.44;6318798;20;2739860;-49
2023/03/28 08:12:40;;;;;;;;;5.00;5.00;;;;;-146.39;100.00;62182.44;6312466;20;2756529;-47
2023/03/28 08:16:07;;;;;;;;;6.50;6.50;;;;;-146.39;100.00;62182.44;6287190;20;2740909;-47
2023/03/28 08:19:35;;;;;;;;;8.00;8.00;;;;;-146.39;100.00;62182.44;6331561;20;1805191;-46
2023/03/28 08:23:02;;;;;;;;;8.00;5.25;;;;;-146.39;100.00;62182.44;6330761;20;1819194;-47
2023/03/28 08:26:28;;;;;;;;;9.50;9.00;;;;;-146.39;100.00;62182.44;6312823;20;2752368;-50
2023/03/28 08:29:56;;;;;;;;;8.00;8.00;;;;;-146.39;100.00;62182.44;6304422;20;1817063;-47
2023/03/28 08:33:23;;;;;;;;;9.00;8.00;;;;;-146.39;100.00;62182.44;6317171;20;2743070;-46
2023/03/28 08:36:52;;;;;;;;;12.60;9.60;;;;;-146.39;100.00;62182.44;6338948;20;2763908;-47
2023/03/28 08:40:20;;;;;;;;;8.00;6.50;;;;;-146.39;100.00;62182.44;6281645;20;2742044;-46
2023/03/28 08:44:15;;;;;;;;;2.75;2.75;;;;;-146.39;100.00;62182.44;6297142;20;1809541;-47
2023/03/28 08:48:18;;;;;;;;;8.00;5.00;;;;;-146.39;100.00;62182.44;6317918;20;2742089;-45
2023/03/28 08:51:58;;;;;;;;;9.00;7.00;;;;;-146.39;100.00;62182.44;6313838;20;2744080;-45
2023/03/28 08:55:40;;;;;;;;;6.50;5.00;;;;;-146.39;100.00;62182.44;6282756;20;2741962;-55
2023/03/28 08:59:18;;;;;;;;;2.50;2.50;;;;;-146.39;100.00;62182.44;6313344;20;2756527;-58
2023/03/28 09:02:44;;;;;;;;;9.00;6.50;;;;;-146.39;100.00;62182.44;6285277;20;2737835;-56
2023/03/28 09:06:39;;;;;;;;;6.00;3.50;;;;;-146.39;100.00;62182.44;6316954;20;2744145;-57
2023/03/28 09:10:39;;;;;;;;;8.50;3.50;;;;;-146.39;100.00;62182.44;6316914;20;2738871;-55
2023/03/28 09:15:04;;;;;;;;;19.00;17.00;;;;;-146.39;100.00;62182.44;6286440;20;2828439;-57
2023/03/28 09:18:59;;;;;;;;;2.00;0.67;;;;;-146.39;100.00;62182.44;6290112;20;3435758;-56
2023/03/28 09:22:42;;;;;;;;;3.00;3.00;;;;;-146.39;100.00;62182.44;6334827;20;1796121;-57
2023/03/28 09:26:31;;;;;;;;;3.50;2.25;;;;;-146.39;100.00;62182.44;6336874;20;1820184;-57
2023/03/28 09:30:37;;;;;;;;;3.25;3.25;;;;;-146.39;100.00;62182.44;6334400;20;1817033;-52
2023/03/28 09:34:26;;;;;;;;;4.50;3.00;;;;;-146.39;100.00;62182.44;6319891;20;2744084;-56
2023/03/28 09:38:25;;;;;;;;;3.00;3.00;;;;;-146.39;100.00;62182.44;6304476;20;1820196;-58
2023/03/28 09:42:10;;;;;;;;;4.00;4.00;;;;;-146.39;100.00;62182.44;6316054;20;2752405;-54
2023/03/28 09:46:38;;;;;;;;;10.00;8.00;;;;;-146.39;100.00;62182.44;6285903;20;2755623;-57
2023/03/28 09:50:18;;;;;;;;;4.75;4.00;;;;;-146.39;100.00;62182.44;6304627;20;1818588;-53
2023/03/28 09:53:47;;;;;;;;;8.00;4.00;;;;;-146.39;100.00;62182.44;6333466;20;1821092;-55
2023/03/28 09:57:16;;;;;;;;;6.00;4.00;;;;;-146.39;100.00;62182.44;6321506;20;2748299;-54
2023/03/28 10:00:49;;;;;;;;;6.75;4.50;;;;;-146.39;100.00;62182.44;6334446;20;1816230;-56
2023/03/28 10:04:35;;;;;;;;;5.00;5.00;;;;;-146.39;100.00;62182.44;6316581;20;2751327;-51
2023/03/28 10:08:31;;;;;;;;;5.00;5.00;;;;;-146.39;100.00;62182.44;6286514;20;2747182;-53
2023/03/28 10:12:17;;;;;;;;;3.00;3.00;;;;;-146.39;100.00;62182.44;6283481;20;2749262;-54
2023/03/28 10:15:48;;;;;;;;;11.00;3.00;;;;;-146.39;100.00;62182.44;6287172;20;2770154;-55
2023/03/28 10:19:25;;;;;;;;;2.50;1.25;;;;;-146.39;100.00;62182.44;6302359;20;1821626;-54
2023/03/28 10:22:53;;;;;;;;;4.00;3.50;;;;;-146.39;100.00;62182.44;6316831;20;2741942;-55
2023/03/28 10:26:29;;;;;;;;;1.00;1.00;;;;;-146.39;100.00;62182.44;6333735;20;1803437;-55
2023/03/28 10:30:08;;;;;;;;;2.00;2.00;;;;;-146.39;100.00;62182.44;6331841;20;1818101;-53
2023/03/28 10:33:39;;;;;;;;;4.00;2.50;;;;;-146.39;100.00;62182.44;6320101;20;2748223;-57
2023/03/28 10:37:26;;;;;;;;;6.00;4.00;;;;;-146.39;100.00;62182.44;6307694;20;2752385;-51
2023/03/28 10:41:11;;;;;;;;;3.00;1.67;;;;;-146.39;100.00;62182.44;6316356;20;3453443;-54
2023/03/28 10:44:39;;;;;;;;;3.75;3.75;;;;;-146.39;100.00;62182.44;6300473;20;1818158;-57
2023/03/28 10:48:19;;;;;;;;;2.00;2.00;;;;;-146.39;100.00;62182.44;6333947;20;1808798;-57
2023/03/28 10:51:47;;;;;;;;;5.50;3.00;;;;;-146.39;100.00;62182.44;6315241;20;2740207;-57
2023/03/28 10:55:24;;;;;;;;;1.25;1.25;;;;;-146.39;100.00;62182.44;6299298;20;1801421;-58
2023/03/28 10:59:30;;;;;;;;;5.00;1.75;;;;;-146.39;100.00;62182.44;6335225;20;1794067;-58
2023/03/28 11:03:33;;;;;;;;;6.00;4.50;;;;;-146.39;100.00;62182.44;6315950;20;2749285;-58
2023/03/28 11:07:35;;;;;;;;;1.00;1.00;;;;;-146.39;100.00;62182.44;6303951;20;1800307;-58
2023/03/28 11:11:43;;;;;;;;;4.00;2.00;;;;;-146.39;100.00;62182.44;6317466;20;2754460;-56
2023/03/28 11:15:25;;;;;;;;;1.00;1.00;;;;;-146.39;100.00;62182.44;6284570;20;2470107;-56
2023/03/28 11:19:19;;;;;;;;;0.00;0.00;;;;;-146.39;100.00;62182.44;6332568;20;1805629;-58
2023/03/28 11:23:14;;;;;;;;;2.00;1.00;;;;;-146.39;100.00;62182.44;6333085;20;1804475;-56
2023/03/28 11:26:48;;;;;;;;;1.00;1.00;;;;;-146.39;100.00;62182.44;6331988;20;1804439;-57
2023/03/28 11:30:33;;;;;;;;;1.00;1.00;;;;;-146.39;100.00;62182.44;6334332;20;1799978;-57
2023/03/28 11:34:30;;;;;;;;;0.00;0.00;;;;;-146.39;100.00;62182.44;6333814;20;1809770;-58
2023/03/28 11:38:21;;;;;;;;;1.50;1.00;;;;;-146.39;100.00;62182.44;6332454;20;1809772;-55
2023/03/28 11:42:05;;;;;;;;;1.00;1.00;;;;;-146.39;100.00;62182.44;6329947;20;1815758;-57
2023/03/28 11:45:46;;;;;;;;;2.50;2.50;;;;;-146.39;100.00;62182.44;6330057;20;1812883;-56
2023/03/28 11:49:37;;;;;;;;;1.75;1.75;;;;;-146.39;100.00;62182.44;6330533;20;1806606;-54
2023/03/28 11:53:33;;;;;;;;;1.00;1.00;;;;;-146.39;100.00;62182.44;6334483;20;1802546;-56
2023/03/28 11:57:41;;;;;;;;;2.00;1.00;;;;;-146.39;100.00;62182.44;6331321;20;1805519;-58
2023/03/28 12:01:22;;;;;;;;;1.00;1.00;;;;;-146.39;100.00;62182.44;6328903;20;1803579;-57
2023/03/28 12:05:31;;;;;;;;;1.00;0.00;;;;;-146.39;100.00;62182.44;6332824;20;1803923;-56
2023/03/28 12:09:29;;;;;;;;;1.00;1.00;;;;;-146.39;100.00;62182.44;6328657;20;1804491;-57
2023/03/28 12:13:19;;;;;;;;;7.67;6.00;;;;;-146.39;100.00;62182.44;6308702;20;3467995;-57
2023/03/28 12:16:51;;;;;;;;;8.00;4.00;;;;;-146.39;100.00;62182.44;6309799;20;2757571;-57
2023/03/28 12:19:36;;;;;;;;;1.25;1.25;;;;;8.73;35.12;99610.25;6300076;20;1815986;-58
2023/03/28 12:22:39;;;;;;;;;3.75;1.00;;;;;8.70;33.82;99615.78;6354579;20;2729583;-58
2023/03/28 12:25:44;;;;;;;;;6.00;3.00;;;;;9.00;34.26;99621.22;6301295;20;1813278;-57
2023/03/28 12:28:50;;;;;;;;;4.00;1.50;;;;;8.90;34.09;99618.22;6330836;20;1817089;-58
2023/03/28 12:31:34;;;;;;;;;1.75;1.00;;;;;8.96;34.07;99622.34;6323710;20;1810805;-58
2023/03/28 12:34:14;;;;;;;;;2.25;1.50;;;;;10.04;33.80;99611.59;6329396;20;1803460;-58
2023/03/28 12:37:10;;;;;;;;;3.00;1.83;;;;;9.29;34.51;99624.06;6357350;20;1797190;-56
2023/03/28 12:39:58;;;;;;;;;1.33;0.00;;;;;8.49;35.08;99631.19;6284069;20;3435699;-59
2023/03/28 12:42:28;;;;;;;;;2.25;1.50;;;;;8.49;31.05;99631.19;6330291;20;1805590;-58
2023/03/28 12:45:05;;;;;;;;;0.00;0.00;;;;;-146.39;100.00;62182.44;6331162;20;1804555;-58
2023/03/28 12:47:40;;;;;;;;;0.83;0.00;;;;;-146.39;100.00;62182.44;6350384;20;2694032;-57
2023/03/28 12:51:37;;;;;;;;;1.33;0.00;;;;;-146.39;100.00;62182.44;6281882;20;3435699;-58
2023/03/28 12:55:25;;;;;;;;;2.00;1.00;;;;;-146.39;100.00;62182.44;6327261;20;1815951;-58
2023/03/28 12:59:37;;;;;;;;;0.00;0.00;;;;;-146.39;100.00;62182.44;6332901;20;1809736;-52
2023/03/28 13:03:50;;;;;;;;;0.00;0.00;;;;;-146.39;100.00;62182.44;6314874;20;3435805;-54
2023/03/28 13:07:59;;;;;;;;;1.50;1.00;;;;;-146.39;100.00;62182.44;6330790;20;1806290;-58
2023/03/28 13:12:07;;;;;;;;;1.00;1.00;;;;;-146.39;100.00;62182.44;6331831;20;1805522;-55
2023/03/28 13:16:06;;;;;;;;;0.00;0.00;;;;;-146.39;100.00;62182.44;6326048;20;1809589;-56
2023/03/28 13:19:54;;;;;;;;;1.00;1.00;;;;;-146.39;100.00;62182.44;6319326;20;1813950;-53
2023/03/28 13:23:36;;;;;;;;;1.00;1.00;;;;;-146.39;100.00;62182.44;6330360;20;1802379;-55
2023/03/28 13:27:28;;;;;;;;;6.00;5.00;;;;;-146.39;100.00;62182.44;6305651;20;2750930;-58
2023/03/28 13:31:11;;;;;;;;;5.00;4.00;;;;;-146.39;100.00;62182.44;6293531;20;1814987;-53
2023/03/28 13:34:00;;;;;;;;;10.00;7.00;;;;;8.21;32.88;99678.06;6310958;20;2766321;-57
2023/03/28 13:36:34;;;;;;;;;10.00;5.00;;;;;8.25;33.52;99678.78;6276613;20;2763936;-56
2023/03/28 13:39:23;;;;;;;;;0.50;0.00;;;;;8.07;32.84;99692.16;6295352;20;1803478;-55
2023/03/28 13:41:57;;;;;;;;;0.00;0.00;;;;;8.08;33.59;99677.88;6329104;20;1804987;-57
2023/03/28 13:44:44;;;;;;;;;2.00;1.00;;;;;8.51;31.81;99689.03;6329095;20;1817084;-55
2023/03/28 13:47:25;;;;;;;;;11.00;7.00;;;;;8.31;29.64;99691.84;6310895;20;2769484;-57
2023/03/28 13:50:23;;;;;;;;;4.00;1.00;;;;;8.07;29.04;99684.13;6286945;20;2730550;-54
2023/03/28 13:52:51;;;;;;;;;1.50;0.00;;;;;8.07;29.04;99684.13;6332804;20;1815039;-56
2023/03/28 13:55:25;;;;;;;;;4.00;4.00;;;;;7.92;30.35;99698.28;6335456;20;1819156;-56
2023/03/28 13:57:54;;;;;;;;;4.00;3.00;;;;;7.92;0.00;77641.53;6342010;20;1817085;-58
2023/03/28 14:00:25;;;;;;;;;1.00;1.00;;;;;-146.39;100.00;62182.44;6332567;20;1803443;-54
2023/03/28 14:03:04;;;;;;;;;0.00;0.00;;;;;-146.39;100.00;62182.44;6333862;20;1809768;-55
2023/03/28 14:05:34;;;;;;;;;2.00;1.50;;;;;-146.39;30.35;81623.22;6334412;20;1805620;-53
2023/03/28 14:08:12;;;;;;;;;0.00;0.00;;;;;-146.39;100.00;62182.44;6335621;20;1809772;-58
2023/03/28 14:10:44;;;;;;;;;2.00;2.00;;;;;-146.39;100.00;62182.44;6331960;20;1804518;-54
2023/03/28 14:13:22;;;;;;;;;1.75;1.75;;;;;-146.39;100.00;62182.44;6333449;20;1817131;-58
2023/03/28 14:15:52;;;;;;;;;3.00;1.00;;;;;8.11;30.53;99717.81;6331279;20;1804498;-53
2023/03/28 14:18:35;;;;;;;;;6.00;4.00;;;;;8.48;32.51;99718.63;6321908;20;2628608;-57
2023/03/28 14:21:07;;;;;;;;;1.00;1.00;;;;;7.93;31.78;99707.19;6329305;20;1806509;-57
2023/03/28 14:23:40;;;;;;;;;8.00;3.00;;;;;7.58;32.11;99721.38;6332838;20;1813019;-57
2023/03/28 14:26:17;;;;;;;;;3.50;2.00;;;;;7.17;33.70;99732.22;6316508;20;2756571;-55
2023/03/28 14:28:46;;;;;;;;;5.00;5.00;;;;;7.17;33.70;99732.22;6300348;20;1820695;-54
2023/03/28 14:31:35;;;;;;;;;18.00;8.00;;;;;-146.39;100.00;62182.44;6312927;20;2796253;-58
2023/03/28 14:34:25;;;;;;;;;6.00;3.25;;;;;-146.39;100.00;62182.44;6304925;20;1819163;-54
2023/03/28 14:37:28;;;;;;;;;13.00;11.00;;;;;-146.39;100.00;62182.44;6319779;20;2791986;-54
2023/03/28 14:39:57;;;;;;;;;5.25;3.00;;;;;-146.39;100.00;62182.44;6298976;20;1819161;-56
2023/03/28 14:42:30;;;;;;;;;8.50;6.00;;;;;-146.39;100.00;62182.44;6333830;20;1821269;-54
2023/03/28 14:44:58;;;;;;;;;23.50;21.50;;;;;-146.39;100.00;62182.44;6308894;20;2498202;-56